• Join FlightAware (Why Join?)
  • Login
  • US Flag 
06:09PM EST


 

Airport Tracker/Info


-or-


 

Live Flight TrackerFlight Track Log ✈ N562JB ✈ 03-May-2012 ✈ TJSJ / SJU - KJFK

Flight Track Log - Related Links

Times and Time Zones

All times are in EDT time to prevent confusion due to time zone crossing. See the N562JB flight status page for this flight to view local times or setup timezone preferences in your user account.

Time Position Orientation Groundspeed Altitude Reporting Facility
EDT Latitude Longitude Course Direction KTS MPH feet Rate Location/Type
04:37PM 18.4623 -66.0187 25° Northeast  Level FlightAware Approximate
04:38PM 18.5544 -66.0854 124° Southeast  Level FlightAware Approximate
04:39PM 18.5000 -66.0000 339° North 220 253 2,300  Level San Juan Center
04:40PM 18.5833 -66.0333 325° Northwest 280 322 5,000 2,820 Climbing San Juan Center
04:41PM 18.6500 -66.0833 308° West 290 334 8,100 2,820 Climbing San Juan Center
04:42PM 18.7000 -66.1500 308° West 290 334 10,800 2,220 Climbing San Juan Center
04:43PM 18.7500 -66.2167 302° West 320 368 12,600 2,340 Climbing San Juan Center
04:44PM 18.8000 -66.3000 293° West 320 368 15,500 2,220 Climbing San Juan Center
04:45PM 18.8333 -66.3833 289° West 330 380 17,100 1,440 Climbing San Juan Center
04:46PM 18.8667 -66.4833 289° West 350 403 18,500 1,500 Climbing San Juan Center
04:47PM 18.9000 -66.5833 289° West 350 403 20,200 1,500 Climbing San Juan Center
04:48PM 18.9333 -66.6833 298° West 380 437 21,600 1,380 Climbing San Juan Center
04:49PM 18.9833 -66.7833 310° West 380 437 23,000 2,100 Climbing San Juan Center
04:50PM 19.0500 -66.8667 335° Northwest 360 414 25,900 1,860 Climbing San Juan Center
04:51PM 19.1500 -66.9167 317° Northwest 380 437 26,800 600 Climbing San Juan Center
04:52PM 19.2167 -66.9833 328° Northwest 380 437 27,200 480 Climbing San Juan Center
04:53PM 19.3167 -67.0500 328° Northwest 420 483 27,800 660 Climbing San Juan Center
04:54PM 19.4167 -67.1167 328° Northwest 430 495 28,600 840 Climbing San Juan Center
04:55PM 19.5167 -67.1833 328° Northwest 420 483 29,600 540 Climbing San Juan Center
04:56PM 19.6167 -67.2500 322° Northwest 440 506 29,800 600 Climbing San Juan Center
04:57PM 19.7167 -67.3333 332° Northwest 440 506 30,900 840 Climbing San Juan Center
04:58PM 19.8333 -67.4000 328° Northwest 440 506 31,600 540 Climbing San Juan Center
04:59PM 19.9333 -67.4667 322° Northwest 450 518 32,000 780 Climbing San Juan Center
05:00PM 20.0333 -67.5500 332° Northwest 460 529 33,200 960 Climbing San Juan Center
05:01PM 20.1500 -67.6167 322° Northwest 450 518 34,000 720 Climbing San Juan Center
05:02PM 20.2500 -67.7000 327° Northwest 450 518 34,700 840 Climbing San Juan Center
05:03PM 20.3853 -67.7950 327° Northwest 608 700 35,800 600 Climbing Miami Center
05:04PM 20.4850 -67.8633 324° Northwest 509 586 36,000 60 Climbing Miami Center
05:05PM 20.5828 -67.9386 327° Northwest 460 529 36,000  Level Miami Center
05:06PM 20.6847 -68.0094 325° Northwest 444 511 36,000  Level Miami Center
05:07PM 20.7825 -68.0828 329° Northwest 438 504 36,000  Level Miami Center
05:08PM 20.8883 -68.1514 327° Northwest 438 504 36,000  Level Miami Center
05:09PM 20.9858 -68.2181 327° Northwest 443 510 36,000  Level Miami Center
05:10PM 21.0875 -68.2894 328° Northwest 438 504 36,000  Level Miami Center
05:11PM 21.1914 -68.3583 330° Northwest 430 495 36,000  Level Miami Center
05:12PM 21.3014 -68.4269 326° Northwest 436 502 36,000  Level Miami Center
05:13PM 21.4011 -68.4983 328° Northwest 436 502 36,000  Level Miami Center
05:14PM 21.5047 -68.5675 327° Northwest 436 502 36,000  Level Miami Center
05:15PM 21.6086 -68.6392 327° Northwest 436 502 36,100  Climbing Miami Center
05:16PM 21.7061 -68.7067 327° Northwest 431 496 36,000 -60 Descending Miami Center
05:17PM 21.8097 -68.7783 329° Northwest 437 503 36,000  Level Miami Center
05:18PM 21.9156 -68.8478 327° Northwest 432 497 36,000  Level Miami Center
05:19PM 22.0172 -68.9178 327° Northwest 432 497 36,000  Level Miami Center
05:20PM 22.1208 -68.9897 327° Northwest 437 503 36,000  Level Miami Center
05:21PM 22.2247 -69.0619 327° Northwest 432 497 36,000  Level Miami Center
05:22PM 22.3283 -69.1342 327° Northwest 437 503 36,000  Level Miami Center
05:23PM 22.4322 -69.2064 328° Northwest 437 503 36,000  Level Miami Center
05:24PM 22.5400 -69.2786 327° Northwest 437 503 36,000  Level Miami Center
05:25PM 22.6414 -69.3492 327° Northwest 442 509 36,000  Level Miami Center
05:26PM 22.7453 -69.4219 328° Northwest 442 509 36,000  Level Miami Center
05:27PM 22.8508 -69.4944 327° Northwest 447 514 36,000  Level Miami Center
05:28PM 22.9544 -69.5675 327° Northwest 453 521 36,000  Level Miami Center
05:29PM 23.0581 -69.6403 328° Northwest 453 521 36,000  Level Miami Center
05:30PM 23.1617 -69.7114 328° Northwest 453 521 36,000  Level Miami Center
05:31PM 23.2672 -69.7844 327° Northwest 454 522 36,000  Level Miami Center
05:32PM 23.3753 -69.8619 327° Northwest 455 524 36,000  Level Miami Center
05:33PM 23.4744 -69.9311 327° Northwest 455 524 36,000  Level Miami Center
05:34PM 23.5800 -70.0047 328° Northwest 455 524 36,000  Level Miami Center
05:35PM 23.6833 -70.0761 327° Northwest 454 522 36,000  Level Miami Center
05:36PM 23.7869 -70.1500 329° Northwest 454 522 36,000  Level Miami Center
05:37PM 23.8903 -70.2192 324° Northwest 450 518 36,000  Level Miami Center
05:38PM 23.9961 -70.3022 328° Northwest 450 518 36,000  Level Miami Center
05:39PM 24.0972 -70.3719 328° Northwest 450 518 36,000  Level Miami Center
05:40PM 24.2006 -70.4417 325° Northwest 456 525 36,000  Level Miami Center
05:41PM 24.3039 -70.5206 326° Northwest 451 519 36,000  Level Miami Center
05:42PM 24.4053 -70.5953 330° Northwest 451 519 36,000  Level Miami Center
05:43PM 24.5081 -70.6606 329° Northwest 451 519 36,000  Level Miami Center
05:44PM 24.6133 -70.7308 323° Northwest 449 517 36,000  Level Miami Center
05:45PM 24.7150 -70.8147 328° Northwest 444 511 36,000  Level Miami Center
05:46PM 24.8158 -70.8853 329° Northwest 438 504 36,000  Level Miami Center
05:47PM 24.9167 -70.9514 335° Northwest 443 510 36,000  Level Miami Center
05:48PM 25.0275 -71.0078 341° North 437 503 36,000  Level Miami Center
05:49PM 25.1483 -71.0525 168° South 431 496 36,000  Level Miami Center
05:50PM 25.0000 -71.0167 347° North 443 510 36,000  Level New York Oceanic (ODAPS)
06:33PM 30.1667 -72.4500 346° North 446 513 36,000  Level New York Oceanic (ODAPS)
06:53PM 32.8486 -73.2481 344° North 446 513 36,000  Level New York Center
06:54PM 32.9625 -73.2861 342° North 434 499 36,000  Level New York Center
06:55PM 33.0697 -73.3289 346° North 434 499 36,000  Level New York Center
06:56PM 33.2003 -73.3678 339° North 425 489 36,000  Level New York Center
06:57PM 33.3117 -73.4186 347° North 430 495 36,000  Level New York Center
06:58PM 33.4111 -73.4467 345° North 425 489 36,000  Level New York Center
06:59PM 33.5456 -73.4908 350° North 425 489 36,000  Level New York Center
07:00PM 33.6556 -73.5144 343° North 442 509 36,000  Level New York Center
07:01PM 33.7983 -73.5669 350° North 463 533 36,000  Level New York Center
07:02PM 33.8936 -73.5878 344° North 448 516 36,000  Level New York Center
07:03PM 34.0114 -73.6294 346° North 437 503 36,000  Level New York Center
07:04PM 34.1294 -73.6661 344° North 437 503 36,000  Level New York Center
07:05PM 34.2494 -73.7081 336° Northwest 432 497 36,000  Level New York Center
07:06PM 34.3583 -73.7675 322° Northwest 432 497 36,000  Level New York Center
07:07PM 34.4542 -73.8592 317° Northwest 432 497 36,000  Level New York Center
07:08PM 34.5431 -73.9608 314° West 432 497 36,000  Level New York Center
07:09PM 34.6278 -74.0678 315° West 437 503 36,000  Level New York Center
07:10PM 34.7122 -74.1722 314° West 437 503 36,000  Level New York Center
07:11PM 34.7967 -74.2772 313° West 437 503 36,000 -60 Level New York Center
07:12PM 34.8789 -74.3847 313° West 432 497 35,900  Descending New York Center
07:13PM 34.9611 -74.4922 314° West 432 497 36,000  Climbing New York Center
07:14PM 35.0453 -74.5975 315° West 432 497 36,000 -60 Level New York Center
07:15PM 35.1294 -74.7008 314° West 432 497 35,900 -60 Descending New York Center
07:16PM 35.2797 -74.8950 313° West 442 509 35,900  Level Washington Center
07:17PM 35.3617 -75.0014 313° West 437 503 36,000  Climbing Washington Center
07:18PM 35.4433 -75.1103 315° West 431 496 36,000 360 Level Washington Center
07:19PM 35.5294 -75.2169 314° West 431 496 36,800 480 Climbing Washington Center
07:20PM 35.6089 -75.3186 314° West 426 490 37,000 60 Climbing Washington Center
07:21PM 35.6906 -75.4233 315° West 420 483 37,000  Level Washington Center
07:22PM 35.7719 -75.5231 315° West 420 483 37,000  Level Washington Center
07:23PM 35.8533 -75.6253 315° West 420 483 37,000  Level Washington Center
07:24PM 35.9347 -75.7256 314° West 420 483 37,000  Level Washington Center
07:25PM 36.0158 -75.8283 314° West 420 483 37,000  Level Washington Center
07:26PM 36.0972 -75.9339 313° West 420 483 37,000  Level Washington Center
07:27PM 36.1781 -76.0397 318° Northwest 420 483 37,000  Level Washington Center
07:28PM 36.2633 -76.1356 351° North 420 483 37,000  Level Washington Center
07:29PM 36.3800 -76.1594 19° North 403 464 37,000 -60 Level Washington Center
07:30PM 36.4969 -76.1086 20° North 396 456 36,900 -60 Descending Washington Center
07:31PM 36.6119 -76.0553 21° North 422 486 36,900  Level Washington Center
07:32PM 36.7167 -76.0039 23° Northeast 433 498 37,000  Climbing Washington Center
07:33PM 36.8294 -75.9447 21° North 439 505 37,000  Level Washington Center
07:34PM 36.9464 -75.8881 20° North 444 511 37,000  Level Washington Center
07:35PM 37.0819 -75.8261 21° North 459 528 37,000  Level Washington Center
07:36PM 37.1969 -75.7717 22° Northeast 447 514 37,000 -60 Level Washington Center
07:37PM 37.3117 -75.7119 20° North 447 514 36,900  Descending Washington Center
07:38PM 37.4286 -75.6572 22° Northeast 447 514 37,000  Climbing Washington Center
07:39PM 37.5453 -75.5969 20° North 447 514 37,000  Level Washington Center
07:40PM 37.6642 -75.5419 23° Northeast 447 514 37,000  Level Washington Center
07:41PM 37.7789 -75.4789 20° North 447 514 37,000  Level Washington Center
07:42PM 37.8997 -75.4233 22° Northeast 447 514 37,000  Level Washington Center
07:43PM 38.0186 -75.3625 22° Northeast 447 514 37,000  Level Washington Center
07:44PM 38.1353 -75.3014 22° Northeast 447 514 37,000  Level Washington Center
07:45PM 38.2519 -75.2428 24° Northeast 447 514 37,000  Level Washington Center
07:46PM 38.3664 -75.1786 23° Northeast 447 514 37,000 -60 Level Washington Center
07:47PM 38.4786 -75.1169 22° Northeast 447 514 36,900 -60 Descending Washington Center
07:48PM 38.5931 -75.0578 21° North 441 507 36,900  Level Washington Center
07:49PM 38.7075 -75.0011 24° Northeast 435 501 36,900  Level Washington Center
07:50PM 38.8217 -74.9361 33° Northeast 435 501 36,900 -540 Level Washington Center
07:51PM 38.9256 -74.8497 34° Northeast 435 501 35,900 -1,920 Descending Washington Center
07:52PM 39.0311 -74.7578 34° Northeast 445 512 33,100 -3,060 Descending Washington Center
07:53PM 39.1411 -74.6631 35° Northeast 457 526 29,800 -3,360 Descending Washington Center
07:54PM 39.2506 -74.5650 33° Northeast 470 541 26,400 -2,940 Descending Washington Center
07:55PM 39.3142 -74.5114 35° Northeast 490 564 24,900 -2,820 Descending New York Center
07:56PM 39.4322 -74.4047 34° Northeast 501 577 21,700 -2,940 Descending New York Center
07:57PM 39.5372 -74.3133 37° Northeast 473 544 19,100 -1,920 Descending New York Center
07:58PM 39.6231 -74.2286 37° Northeast 442 509 18,000 -1,320 Descending New York Center
07:59PM 39.7239 -74.1311 35° Northeast 416 479 16,500 -1,980 Descending New York Center
08:00PM 39.8181 -74.0464 35° Northeast 406 467 14,100 -2,220 Descending New York Center
08:01PM 39.9036 -73.9694 35° Northeast 391 450 12,000 -1,560 Descending New York Center
08:02PM 39.9742 -73.9047 32° Northeast 360 414 11,000 -540 Descending New York Center
08:03PM 40.0486 -73.8431 35° Northeast 300 345 11,000 -360 Level New York Center
08:04PM 40.1042 -73.7914 31° Northeast 276 318 10,300 -960 Descending New York Center
08:05PM 40.1764 -73.7347 31° Northeast 270 311 9,100 -1,200 Descending New York Center
08:06PM 40.2361 -73.6883 27° Northeast 265 305 7,900 -1,080 Descending New York Center
08:07PM 40.3081 -73.6397 22° Northeast 260 299 7,000 -480 Descending New York Center
08:08PM 40.3692 -73.6069 16° North 260 299 7,000  Level New York Center
08:09PM 40.4472 -73.5772 21° North 260 299 7,000 -240 Level New York Center
08:10PM 40.5333 -73.5333 21° North 264 304 6,500 -1,020 Descending New York TRACON
08:11PM 40.6000 -73.5000 360° North 271 312 4,800 -1,620 Descending New York TRACON
08:12PM 40.6667 -73.5000 351° North 259 298 3,300 -900 Descending New York TRACON
08:13PM 40.7500 -73.5167 303° West 258 297 3,000 -720 Descending New York TRACON
08:14PM 40.7833 -73.5833 270° West 242 278 2,000 -540 Descending New York TRACON
08:15PM 40.7833 -73.6500 207° Southwest 221 254 2,000  Level New York TRACON
08:16PM 40.7333 -73.6833 207° Southwest 193 222 2,000 -480 Level New York TRACON
08:17PM 40.6833 -73.7167 217° Southwest 151 174 1,100 -900 Descending New York TRACON
08:18PM 40.6500 -73.7500 217° Southwest 139 160 300 -840 Descending New York TRACON